sensor_id;sensor_type;location;lat;lon;timestamp;P1;durP1;ratioP1;P2;durP2;ratioP2
58621;SDS011;44389;51.578;5.456;2023-05-08T00:00:45;34.38;;;30.45;;
58621;SDS011;44389;51.578;5.456;2023-05-08T00:03:10;30.58;;;27.38;;
58621;SDS011;44389;51.578;5.456;2023-05-08T00:05:35;29.02;;;26.00;;
58621;SDS011;44389;51.578;5.456;2023-05-08T00:08:00;29.20;;;26.20;;
58621;SDS011;44389;51.578;5.456;2023-05-08T00:10:26;31.23;;;28.02;;
58621;SDS011;44389;51.578;5.456;2023-05-08T00:12:53;32.37;;;28.03;;
58621;SDS011;44389;51.578;5.456;2023-05-08T00:15:18;28.45;;;25.48;;
58621;SDS011;44389;51.578;5.456;2023-05-08T00:17:44;30.70;;;27.42;;
58621;SDS011;44389;51.578;5.456;2023-05-08T00:20:10;31.88;;;28.50;;
58621;SDS011;44389;51.578;5.456;2023-05-08T00:22:36;30.55;;;27.48;;
58621;SDS011;44389;51.578;5.456;2023-05-08T00:25:01;32.58;;;29.08;;
58621;SDS011;44389;51.578;5.456;2023-05-08T00:27:29;31.08;;;27.77;;
58621;SDS011;44389;51.578;5.456;2023-05-08T00:29:54;33.15;;;29.65;;
58621;SDS011;44389;51.578;5.456;2023-05-08T00:32:20;34.08;;;30.42;;
58621;SDS011;44389;51.578;5.456;2023-05-08T00:34:45;34.10;;;30.63;;
58621;SDS011;44389;51.578;5.456;2023-05-08T00:37:10;35.33;;;30.15;;
58621;SDS011;44389;51.578;5.456;2023-05-08T00:39:36;35.53;;;30.80;;
58621;SDS011;44389;51.578;5.456;2023-05-08T00:42:01;34.10;;;30.15;;
58621;SDS011;44389;51.578;5.456;2023-05-08T00:44:26;36.70;;;30.33;;
58621;SDS011;44389;51.578;5.456;2023-05-08T00:46:51;36.38;;;31.00;;
58621;SDS011;44389;51.578;5.456;2023-05-08T00:49:17;39.33;;;31.85;;
58621;SDS011;44389;51.578;5.456;2023-05-08T00:51:43;38.33;;;32.33;;
58621;SDS011;44389;51.578;5.456;2023-05-08T00:54:10;35.00;;;31.27;;
58621;SDS011;44389;51.578;5.456;2023-05-08T00:56:36;35.70;;;31.75;;
58621;SDS011;44389;51.578;5.456;2023-05-08T00:59:02;38.20;;;33.10;;
58621;SDS011;44389;51.578;5.456;2023-05-08T01:01:31;36.78;;;31.42;;
58621;SDS011;44389;51.578;5.456;2023-05-08T01:04:01;40.17;;;33.42;;
58621;SDS011;44389;51.578;5.456;2023-05-08T01:06:27;34.95;;;31.25;;
58621;SDS011;44389;51.578;5.456;2023-05-08T01:08:53;33.33;;;29.50;;
58621;SDS011;44389;51.578;5.456;2023-05-08T01:19:39;31.92;;;28.67;;
58621;SDS011;44389;51.578;5.456;2023-05-08T01:28:15;35.05;;;31.27;;
58621;SDS011;44389;51.578;5.456;2023-05-08T01:31:02;37.80;;;31.35;;
58621;SDS011;44389;51.578;5.456;2023-05-08T01:33:39;35.05;;;30.48;;
58621;SDS011;44389;51.578;5.456;2023-05-08T01:36:14;30.95;;;27.65;;
58621;SDS011;44389;51.578;5.456;2023-05-08T01:41:24;28.55;;;25.45;;
58621;SDS011;44389;51.578;5.456;2023-05-08T01:46:41;27.45;;;24.73;;
58621;SDS011;44389;51.578;5.456;2023-05-08T01:49:14;30.98;;;26.35;;
58621;SDS011;44389;51.578;5.456;2023-05-08T01:51:47;30.55;;;27.38;;
58621;SDS011;44389;51.578;5.456;2023-05-08T01:54:27;30.90;;;27.63;;
58621;SDS011;44389;51.578;5.456;2023-05-08T01:56:58;29.90;;;26.75;;
58621;SDS011;44389;51.578;5.456;2023-05-08T01:59:25;32.10;;;28.60;;
58621;SDS011;44389;51.578;5.456;2023-05-08T02:01:54;32.03;;;28.52;;
58621;SDS011;44389;51.578;5.456;2023-05-08T02:04:21;34.75;;;30.88;;
58621;SDS011;44389;51.578;5.456;2023-05-08T02:06:47;33.42;;;29.85;;
58621;SDS011;44389;51.578;5.456;2023-05-08T02:11:40;34.00;;;29.85;;
58621;SDS011;44389;51.578;5.456;2023-05-08T02:14:08;35.35;;;31.48;;
58621;SDS011;44389;51.578;5.456;2023-05-08T02:16:37;38.28;;;32.83;;
58621;SDS011;44389;51.578;5.456;2023-05-08T02:19:04;40.40;;;34.40;;
58621;SDS011;44389;51.578;5.456;2023-05-08T02:21:32;40.42;;;35.85;;
58621;SDS011;44389;51.578;5.456;2023-05-08T02:23:59;45.53;;;38.90;;
58621;SDS011;44389;51.578;5.456;2023-05-08T02:26:25;52.72;;;40.58;;
58621;SDS011;44389;51.578;5.456;2023-05-08T02:28:52;53.75;;;40.42;;
58621;SDS011;44389;51.578;5.456;2023-05-08T02:31:19;47.55;;;39.72;;
58621;SDS011;44389;51.578;5.456;2023-05-08T02:33:46;48.50;;;39.92;;
58621;SDS011;44389;51.578;5.456;2023-05-08T02:36:14;51.85;;;41.50;;
58621;SDS011;44389;51.578;5.456;2023-05-08T02:38:43;47.85;;;40.33;;
58621;SDS011;44389;51.578;5.456;2023-05-08T02:41:10;54.95;;;41.55;;
58621;SDS011;44389;51.578;5.456;2023-05-08T02:43:37;52.25;;;42.55;;
58621;SDS011;44389;51.578;5.456;2023-05-08T02:46:09;52.30;;;41.83;;
58621;SDS011;44389;51.578;5.456;2023-05-08T02:51:36;56.42;;;40.63;;
58621;SDS011;44389;51.578;5.456;2023-05-08T02:54:09;56.25;;;42.00;;
58621;SDS011;44389;51.578;5.456;2023-05-08T02:56:55;48.15;;;38.45;;
58621;SDS011;44389;51.578;5.456;2023-05-08T02:59:27;47.15;;;39.53;;
58621;SDS011;44389;51.578;5.456;2023-05-08T03:04:58;52.10;;;42.00;;
58621;SDS011;44389;51.578;5.456;2023-05-08T03:07:27;52.42;;;40.92;;
58621;SDS011;44389;51.578;5.456;2023-05-08T03:09:58;52.67;;;40.13;;
58621;SDS011;44389;51.578;5.456;2023-05-08T03:12:30;45.17;;;39.15;;
58621;SDS011;44389;51.578;5.456;2023-05-08T03:15:02;46.53;;;37.38;;
58621;SDS011;44389;51.578;5.456;2023-05-08T03:17:31;43.70;;;36.25;;
58621;SDS011;44389;51.578;5.456;2023-05-08T03:22:26;41.95;;;34.47;;
58621;SDS011;44389;51.578;5.456;2023-05-08T03:24:52;41.03;;;33.70;;
58621;SDS011;44389;51.578;5.456;2023-05-08T03:27:21;40.58;;;35.10;;
58621;SDS011;44389;51.578;5.456;2023-05-08T03:29:46;44.10;;;36.17;;
58621;SDS011;44389;51.578;5.456;2023-05-08T03:32:14;44.03;;;37.75;;
58621;SDS011;44389;51.578;5.456;2023-05-08T03:34:41;48.15;;;38.10;;
58621;SDS011;44389;51.578;5.456;2023-05-08T03:37:07;56.15;;;41.47;;
58621;SDS011;44389;51.578;5.456;2023-05-08T03:39:33;61.30;;;44.70;;
58621;SDS011;44389;51.578;5.456;2023-05-08T03:41:58;66.38;;;46.55;;
58621;SDS011;44389;51.578;5.456;2023-05-08T03:44:23;58.40;;;43.25;;
58621;SDS011;44389;51.578;5.456;2023-05-08T03:46:52;53.70;;;40.40;;
58621;SDS011;44389;51.578;5.456;2023-05-08T03:49:22;53.45;;;41.28;;
58621;SDS011;44389;51.578;5.456;2023-05-08T03:54:15;46.15;;;38.53;;
58621;SDS011;44389;51.578;5.456;2023-05-08T03:56:40;59.45;;;44.03;;
58621;SDS011;44389;51.578;5.456;2023-05-08T03:59:08;57.53;;;44.58;;
58621;SDS011;44389;51.578;5.456;2023-05-08T04:02:07;67.82;;;48.65;;
58621;SDS011;44389;51.578;5.456;2023-05-08T04:04:38;65.68;;;47.60;;
58621;SDS011;44389;51.578;5.456;2023-05-08T04:07:07;67.03;;;47.28;;
58621;SDS011;44389;51.578;5.456;2023-05-08T04:09:42;75.07;;;52.53;;
58621;SDS011;44389;51.578;5.456;2023-05-08T04:12:19;73.60;;;51.25;;
58621;SDS011;44389;51.578;5.456;2023-05-08T04:14:51;69.30;;;49.15;;
58621;SDS011;44389;51.578;5.456;2023-05-08T04:17:27;70.50;;;51.05;;
58621;SDS011;44389;51.578;5.456;2023-05-08T04:20:01;87.13;;;53.75;;
58621;SDS011;44389;51.578;5.456;2023-05-08T04:22:29;68.10;;;49.58;;
58621;SDS011;44389;51.578;5.456;2023-05-08T04:24:57;80.82;;;53.05;;
58621;SDS011;44389;51.578;5.456;2023-05-08T04:29:51;79.18;;;51.00;;
58621;SDS011;44389;51.578;5.456;2023-05-08T04:32:18;82.18;;;52.22;;
58621;SDS011;44389;51.578;5.456;2023-05-08T04:34:44;76.32;;;51.97;;
58621;SDS011;44389;51.578;5.456;2023-05-08T04:37:20;79.07;;;55.33;;
58621;SDS011;44389;51.578;5.456;2023-05-08T04:39:49;78.85;;;52.58;;
58621;SDS011;44389;51.578;5.456;2023-05-08T04:42:15;83.65;;;53.45;;
58621;SDS011;44389;51.578;5.456;2023-05-08T04:44:40;82.97;;;54.10;;
58621;SDS011;44389;51.578;5.456;2023-05-08T04:47:05;74.60;;;51.97;;
58621;SDS011;44389;51.578;5.456;2023-05-08T04:49:31;81.32;;;52.15;;
58621;SDS011;44389;51.578;5.456;2023-05-08T04:51:56;73.50;;;50.10;;
58621;SDS011;44389;51.578;5.456;2023-05-08T04:54:22;77.47;;;50.28;;
58621;SDS011;44389;51.578;5.456;2023-05-08T04:56:47;77.90;;;50.45;;
58621;SDS011;44389;51.578;5.456;2023-05-08T04:59:12;82.28;;;53.70;;
58621;SDS011;44389;51.578;5.456;2023-05-08T05:01:37;91.18;;;57.35;;
58621;SDS011;44389;51.578;5.456;2023-05-08T05:04:03;81.65;;;53.92;;
58621;SDS011;44389;51.578;5.456;2023-05-08T05:06:28;88.97;;;55.83;;
58621;SDS011;44389;51.578;5.456;2023-05-08T05:08:53;84.05;;;56.50;;
58621;SDS011;44389;51.578;5.456;2023-05-08T05:11:19;103.25;;;60.47;;
58621;SDS011;44389;51.578;5.456;2023-05-08T05:13:45;96.13;;;58.95;;
58621;SDS011;44389;51.578;5.456;2023-05-08T05:16:10;105.38;;;61.28;;
58621;SDS011;44389;51.578;5.456;2023-05-08T05:18:35;103.50;;;60.92;;
58621;SDS011;44389;51.578;5.456;2023-05-08T05:21:01;145.40;;;70.82;;
58621;SDS011;44389;51.578;5.456;2023-05-08T05:23:27;168.48;;;75.43;;
58621;SDS011;44389;51.578;5.456;2023-05-08T05:25:52;164.20;;;73.10;;
58621;SDS011;44389;51.578;5.456;2023-05-08T05:28:18;201.73;;;75.20;;
58621;SDS011;44389;51.578;5.456;2023-05-08T05:30:45;162.85;;;76.03;;
58621;SDS011;44389;51.578;5.456;2023-05-08T05:33:11;159.38;;;77.13;;
58621;SDS011;44389;51.578;5.456;2023-05-08T05:35:36;216.73;;;81.05;;
58621;SDS011;44389;51.578;5.456;2023-05-08T05:38:01;163.10;;;77.43;;
58621;SDS011;44389;51.578;5.456;2023-05-08T05:40:27;180.65;;;81.55;;
58621;SDS011;44389;51.578;5.456;2023-05-08T05:42:52;204.90;;;86.38;;
58621;SDS011;44389;51.578;5.456;2023-05-08T05:45:17;229.30;;;88.63;;
58621;SDS011;44389;51.578;5.456;2023-05-08T05:47:43;188.18;;;83.05;;
58621;SDS011;44389;51.578;5.456;2023-05-08T05:50:10;162.18;;;81.35;;
58621;SDS011;44389;51.578;5.456;2023-05-08T05:52:35;158.50;;;82.10;;
58621;SDS011;44389;51.578;5.456;2023-05-08T05:55:01;190.10;;;87.03;;
58621;SDS011;44389;51.578;5.456;2023-05-08T05:57:26;163.82;;;87.57;;
58621;SDS011;44389;51.578;5.456;2023-05-08T05:59:51;155.20;;;85.82;;
58621;SDS011;44389;51.578;5.456;2023-05-08T06:02:16;178.70;;;91.32;;
58621;SDS011;44389;51.578;5.456;2023-05-08T06:04:44;176.52;;;90.15;;
58621;SDS011;44389;51.578;5.456;2023-05-08T06:07:09;187.25;;;90.10;;
58621;SDS011;44389;51.578;5.456;2023-05-08T06:09:34;176.93;;;89.82;;
58621;SDS011;44389;51.578;5.456;2023-05-08T06:12:00;172.40;;;90.18;;
58621;SDS011;44389;51.578;5.456;2023-05-08T06:14:26;170.55;;;88.75;;
58621;SDS011;44389;51.578;5.456;2023-05-08T06:16:51;152.93;;;84.25;;
58621;SDS011;44389;51.578;5.456;2023-05-08T06:19:17;169.45;;;87.50;;
58621;SDS011;44389;51.578;5.456;2023-05-08T06:21:42;163.07;;;90.00;;
58621;SDS011;44389;51.578;5.456;2023-05-08T06:24:07;176.98;;;89.38;;
58621;SDS011;44389;51.578;5.456;2023-05-08T06:26:33;129.80;;;85.90;;
58621;SDS011;44389;51.578;5.456;2023-05-08T06:28:58;125.30;;;82.72;;
58621;SDS011;44389;51.578;5.456;2023-05-08T06:31:23;151.07;;;90.55;;
58621;SDS011;44389;51.578;5.456;2023-05-08T06:33:49;163.15;;;96.03;;
58621;SDS011;44389;51.578;5.456;2023-05-08T06:36:14;158.50;;;95.97;;
58621;SDS011;44389;51.578;5.456;2023-05-08T06:38:39;132.52;;;88.63;;
58621;SDS011;44389;51.578;5.456;2023-05-08T06:41:04;115.72;;;80.05;;
58621;SDS011;44389;51.578;5.456;2023-05-08T06:43:30;115.38;;;79.68;;
58621;SDS011;44389;51.578;5.456;2023-05-08T06:45:55;110.75;;;81.32;;
58621;SDS011;44389;51.578;5.456;2023-05-08T06:48:20;109.75;;;78.63;;
58621;SDS011;44389;51.578;5.456;2023-05-08T06:50:46;103.70;;;74.85;;
58621;SDS011;44389;51.578;5.456;2023-05-08T06:53:12;104.72;;;76.13;;
58621;SDS011;44389;51.578;5.456;2023-05-08T06:55:37;94.18;;;71.07;;
58621;SDS011;44389;51.578;5.456;2023-05-08T06:58:02;89.72;;;69.80;;
58621;SDS011;44389;51.578;5.456;2023-05-08T07:00:28;91.45;;;72.15;;
58621;SDS011;44389;51.578;5.456;2023-05-08T07:02:53;93.55;;;70.68;;
58621;SDS011;44389;51.578;5.456;2023-05-08T07:05:19;92.20;;;70.03;;
58621;SDS011;44389;51.578;5.456;2023-05-08T07:07:44;85.40;;;66.75;;
58621;SDS011;44389;51.578;5.456;2023-05-08T07:10:10;87.97;;;68.28;;
58621;SDS011;44389;51.578;5.456;2023-05-08T07:12:35;90.38;;;69.28;;
58621;SDS011;44389;51.578;5.456;2023-05-08T07:15:01;89.07;;;67.32;;
58621;SDS011;44389;51.578;5.456;2023-05-08T07:17:26;96.22;;;68.53;;
58621;SDS011;44389;51.578;5.456;2023-05-08T07:19:51;91.90;;;67.85;;
58621;SDS011;44389;51.578;5.456;2023-05-08T07:22:17;87.38;;;67.28;;
58621;SDS011;44389;51.578;5.456;2023-05-08T07:24:42;89.78;;;67.68;;
58621;SDS011;44389;51.578;5.456;2023-05-08T07:27:08;89.35;;;66.28;;
58621;SDS011;44389;51.578;5.456;2023-05-08T07:29:33;89.15;;;66.25;;
58621;SDS011;44389;51.578;5.456;2023-05-08T07:32:02;85.20;;;65.93;;
58621;SDS011;44389;51.578;5.456;2023-05-08T07:34:32;81.13;;;63.20;;
58621;SDS011;44389;51.578;5.456;2023-05-08T07:36:57;80.38;;;63.38;;
58621;SDS011;44389;51.578;5.456;2023-05-08T07:39:23;83.85;;;60.78;;
58621;SDS011;44389;51.578;5.456;2023-05-08T07:41:48;77.70;;;61.47;;
58621;SDS011;44389;51.578;5.456;2023-05-08T07:44:13;73.28;;;59.70;;
58621;SDS011;44389;51.578;5.456;2023-05-08T07:46:38;74.32;;;59.10;;
58621;SDS011;44389;51.578;5.456;2023-05-08T07:49:04;71.72;;;58.53;;
58621;SDS011;44389;51.578;5.456;2023-05-08T07:51:30;71.88;;;58.30;;
58621;SDS011;44389;51.578;5.456;2023-05-08T07:53:56;70.72;;;58.78;;
58621;SDS011;44389;51.578;5.456;2023-05-08T07:56:21;67.35;;;57.30;;
58621;SDS011;44389;51.578;5.456;2023-05-08T07:58:47;69.72;;;58.28;;
58621;SDS011;44389;51.578;5.456;2023-05-08T08:01:12;67.82;;;56.83;;
58621;SDS011;44389;51.578;5.456;2023-05-08T08:03:37;64.05;;;55.20;;
58621;SDS011;44389;51.578;5.456;2023-05-08T08:06:03;59.28;;;52.65;;
58621;SDS011;44389;51.578;5.456;2023-05-08T08:08:28;57.33;;;49.28;;
58621;SDS011;44389;51.578;5.456;2023-05-08T08:10:53;55.22;;;49.03;;
58621;SDS011;44389;51.578;5.456;2023-05-08T08:13:19;56.67;;;49.58;;
58621;SDS011;44389;51.578;5.456;2023-05-08T08:15:44;55.70;;;49.13;;
58621;SDS011;44389;51.578;5.456;2023-05-08T08:18:09;54.45;;;48.00;;
58621;SDS011;44389;51.578;5.456;2023-05-08T08:20:35;55.08;;;48.22;;
58621;SDS011;44389;51.578;5.456;2023-05-08T08:23:01;50.30;;;44.90;;
58621;SDS011;44389;51.578;5.456;2023-05-08T08:25:27;49.85;;;44.47;;
58621;SDS011;44389;51.578;5.456;2023-05-08T08:27:52;48.30;;;42.35;;
58621;SDS011;44389;51.578;5.456;2023-05-08T08:30:17;45.28;;;40.42;;
58621;SDS011;44389;51.578;5.456;2023-05-08T08:32:43;42.28;;;37.72;;
58621;SDS011;44389;51.578;5.456;2023-05-08T08:35:08;43.47;;;38.97;;
58621;SDS011;44389;51.578;5.456;2023-05-08T08:37:33;43.25;;;38.65;;
58621;SDS011;44389;51.578;5.456;2023-05-08T08:39:59;41.97;;;37.55;;
58621;SDS011;44389;51.578;5.456;2023-05-08T08:42:25;39.72;;;35.20;;
58621;SDS011;44389;51.578;5.456;2023-05-08T08:44:50;39.33;;;34.70;;
58621;SDS011;44389;51.578;5.456;2023-05-08T08:47:16;40.35;;;36.25;;
58621;SDS011;44389;51.578;5.456;2023-05-08T08:49:46;41.33;;;36.90;;
58621;SDS011;44389;51.578;5.456;2023-05-08T08:52:21;42.30;;;37.70;;
58621;SDS011;44389;51.578;5.456;2023-05-08T08:55:02;42.78;;;38.08;;
58621;SDS011;44389;51.578;5.456;2023-05-08T08:57:32;41.53;;;37.10;;
58621;SDS011;44389;51.578;5.456;2023-05-08T09:00:02;40.17;;;35.88;;
58621;SDS011;44389;51.578;5.456;2023-05-08T09:02:29;38.90;;;34.92;;
58621;SDS011;44389;51.578;5.456;2023-05-08T09:04:55;40.85;;;36.55;;
58621;SDS011;44389;51.578;5.456;2023-05-08T09:07:21;38.75;;;34.88;;
58621;SDS011;44389;51.578;5.456;2023-05-08T09:09:48;38.25;;;34.25;;
58621;SDS011;44389;51.578;5.456;2023-05-08T09:12:14;35.03;;;31.50;;
58621;SDS011;44389;51.578;5.456;2023-05-08T09:14:39;36.50;;;32.70;;
58621;SDS011;44389;51.578;5.456;2023-05-08T09:17:05;34.80;;;31.30;;
58621;SDS011;44389;51.578;5.456;2023-05-08T09:19:31;35.10;;;31.40;;
58621;SDS011;44389;51.578;5.456;2023-05-08T09:22:00;36.80;;;33.13;;
58621;SDS011;44389;51.578;5.456;2023-05-08T09:27:20;38.47;;;34.47;;
58621;SDS011;44389;51.578;5.456;2023-05-08T09:30:06;40.20;;;34.65;;
58621;SDS011;44389;51.578;5.456;2023-05-08T09:32:32;39.10;;;34.60;;
58621;SDS011;44389;51.578;5.456;2023-05-08T09:34:59;37.65;;;33.72;;
58621;SDS011;44389;51.578;5.456;2023-05-08T09:37:25;38.67;;;34.60;;
58621;SDS011;44389;51.578;5.456;2023-05-08T09:39:52;37.33;;;33.30;;
58621;SDS011;44389;51.578;5.456;2023-05-08T09:42:18;38.28;;;34.22;;
58621;SDS011;44389;51.578;5.456;2023-05-08T09:44:45;35.40;;;31.77;;
58621;SDS011;44389;51.578;5.456;2023-05-08T09:47:13;36.92;;;33.08;;
58621;SDS011;44389;51.578;5.456;2023-05-08T09:52:49;35.83;;;31.92;;
58621;SDS011;44389;51.578;5.456;2023-05-08T09:55:15;36.30;;;32.40;;
58621;SDS011;44389;51.578;5.456;2023-05-08T09:57:50;38.88;;;33.70;;
58621;SDS011;44389;51.578;5.456;2023-05-08T10:00:21;38.38;;;34.33;;
58621;SDS011;44389;51.578;5.456;2023-05-08T10:02:54;37.60;;;33.63;;
58621;SDS011;44389;51.578;5.456;2023-05-08T10:05:27;37.63;;;33.83;;
58621;SDS011;44389;51.578;5.456;2023-05-08T10:10:47;37.10;;;33.33;;
58621;SDS011;44389;51.578;5.456;2023-05-08T10:13:13;38.00;;;33.88;;
58621;SDS011;44389;51.578;5.456;2023-05-08T10:15:40;38.22;;;34.25;;
58621;SDS011;44389;51.578;5.456;2023-05-08T10:18:06;41.88;;;37.53;;
58621;SDS011;44389;51.578;5.456;2023-05-08T10:20:33;46.38;;;39.58;;
58621;SDS011;44389;51.578;5.456;2023-05-08T10:23:02;48.90;;;42.28;;
58621;SDS011;44389;51.578;5.456;2023-05-08T10:25:32;49.17;;;41.92;;
58621;SDS011;44389;51.578;5.456;2023-05-08T10:28:06;47.95;;;42.72;;
58621;SDS011;44389;51.578;5.456;2023-05-08T10:30:38;46.47;;;41.58;;
58621;SDS011;44389;51.578;5.456;2023-05-08T10:33:09;47.63;;;42.17;;
58621;SDS011;44389;51.578;5.456;2023-05-08T10:35:35;50.67;;;43.75;;
58621;SDS011;44389;51.578;5.456;2023-05-08T10:38:02;51.58;;;44.40;;
58621;SDS011;44389;51.578;5.456;2023-05-08T10:40:28;52.70;;;45.57;;
58621;SDS011;44389;51.578;5.456;2023-05-08T10:42:53;54.88;;;46.00;;
58621;SDS011;44389;51.578;5.456;2023-05-08T10:45:20;53.30;;;45.37;;
58621;SDS011;44389;51.578;5.456;2023-05-08T10:48:07;53.28;;;44.13;;
58621;SDS011;44389;51.578;5.456;2023-05-08T10:51:05;55.67;;;46.50;;
58621;SDS011;44389;51.578;5.456;2023-05-08T10:53:39;53.17;;;44.58;;
58621;SDS011;44389;51.578;5.456;2023-05-08T10:56:10;52.50;;;45.65;;
58621;SDS011;44389;51.578;5.456;2023-05-08T10:58:35;51.88;;;44.33;;
58621;SDS011;44389;51.578;5.456;2023-05-08T11:03:31;54.35;;;45.22;;
58621;SDS011;44389;51.578;5.456;2023-05-08T11:06:01;53.90;;;44.40;;
58621;SDS011;44389;51.578;5.456;2023-05-08T11:08:27;52.88;;;44.83;;
58621;SDS011;44389;51.578;5.456;2023-05-08T11:13:46;49.67;;;43.63;;
58621;SDS011;44389;51.578;5.456;2023-05-08T11:16:16;50.10;;;42.13;;
58621;SDS011;44389;51.578;5.456;2023-05-08T11:19:14;53.80;;;43.10;;
58621;SDS011;44389;51.578;5.456;2023-05-08T11:24:51;50.08;;;42.78;;
58621;SDS011;44389;51.578;5.456;2023-05-08T11:27:35;52.92;;;44.00;;
58621;SDS011;44389;51.578;5.456;2023-05-08T11:38:22;52.80;;;44.38;;
58621;SDS011;44389;51.578;5.456;2023-05-08T11:40:56;55.33;;;44.15;;
58621;SDS011;44389;51.578;5.456;2023-05-08T11:43:26;53.70;;;44.88;;
58621;SDS011;44389;51.578;5.456;2023-05-08T11:46:02;51.67;;;43.85;;
58621;SDS011;44389;51.578;5.456;2023-05-08T11:48:29;50.05;;;41.42;;
58621;SDS011;44389;51.578;5.456;2023-05-08T11:50:56;52.13;;;43.60;;
58621;SDS011;44389;51.578;5.456;2023-05-08T11:53:23;51.22;;;42.40;;
58621;SDS011;44389;51.578;5.456;2023-05-08T11:55:49;48.38;;;39.88;;
58621;SDS011;44389;51.578;5.456;2023-05-08T11:58:16;44.72;;;38.78;;
58621;SDS011;44389;51.578;5.456;2023-05-08T12:00:42;49.15;;;40.30;;
58621;SDS011;44389;51.578;5.456;2023-05-08T12:05:39;45.47;;;38.78;;
58621;SDS011;44389;51.578;5.456;2023-05-08T12:08:04;46.70;;;39.47;;
58621;SDS011;44389;51.578;5.456;2023-05-08T12:10:30;43.97;;;38.03;;
58621;SDS011;44389;51.578;5.456;2023-05-08T12:12:56;42.63;;;36.67;;
58621;SDS011;44389;51.578;5.456;2023-05-08T12:15:21;40.50;;;33.72;;
58621;SDS011;44389;51.578;5.456;2023-05-08T12:17:47;40.08;;;34.42;;
58621;SDS011;44389;51.578;5.456;2023-05-08T12:22:39;37.28;;;32.92;;
58621;SDS011;44389;51.578;5.456;2023-05-08T12:25:05;39.10;;;32.63;;
58621;SDS011;44389;51.578;5.456;2023-05-08T12:27:34;37.40;;;32.60;;
58621;SDS011;44389;51.578;5.456;2023-05-08T12:30:04;35.40;;;30.80;;
58621;SDS011;44389;51.578;5.456;2023-05-08T12:32:31;34.92;;;30.35;;
58621;SDS011;44389;51.578;5.456;2023-05-08T12:34:57;34.83;;;31.08;;
58621;SDS011;44389;51.578;5.456;2023-05-08T12:37:27;38.30;;;32.83;;
58621;SDS011;44389;51.578;5.456;2023-05-08T12:39:53;36.92;;;32.85;;
58621;SDS011;44389;51.578;5.456;2023-05-08T12:42:18;38.08;;;33.42;;
58621;SDS011;44389;51.578;5.456;2023-05-08T12:44:50;38.80;;;34.10;;
58621;SDS011;44389;51.578;5.456;2023-05-08T12:47:19;36.05;;;30.70;;
58621;SDS011;44389;51.578;5.456;2023-05-08T12:49:44;39.83;;;32.47;;
58621;SDS011;44389;51.578;5.456;2023-05-08T12:52:13;35.15;;;31.45;;
58621;SDS011;44389;51.578;5.456;2023-05-08T12:54:39;34.17;;;30.53;;
58621;SDS011;44389;51.578;5.456;2023-05-08T12:57:12;35.97;;;30.20;;
58621;SDS011;44389;51.578;5.456;2023-05-08T12:59:39;33.50;;;29.23;;
58621;SDS011;44389;51.578;5.456;2023-05-08T13:02:16;27.90;;;24.10;;
58621;SDS011;44389;51.578;5.456;2023-05-08T13:04:41;32.78;;;24.48;;
58621;SDS011;44389;51.578;5.456;2023-05-08T13:07:08;31.00;;;27.30;;
58621;SDS011;44389;51.578;5.456;2023-05-08T13:09:33;30.58;;;25.38;;
58621;SDS011;44389;51.578;5.456;2023-05-08T13:11:59;27.13;;;23.48;;
58621;SDS011;44389;51.578;5.456;2023-05-08T13:14:24;23.20;;;20.48;;
58621;SDS011;44389;51.578;5.456;2023-05-08T13:16:49;22.20;;;18.88;;
58621;SDS011;44389;51.578;5.456;2023-05-08T13:19:15;23.60;;;18.73;;
58621;SDS011;44389;51.578;5.456;2023-05-08T13:21:41;20.73;;;16.83;;
58621;SDS011;44389;51.578;5.456;2023-05-08T13:24:11;22.40;;;18.60;;
58621;SDS011;44389;51.578;5.456;2023-05-08T13:26:36;20.02;;;17.10;;
58621;SDS011;44389;51.578;5.456;2023-05-08T13:29:01;22.65;;;18.38;;
58621;SDS011;44389;51.578;5.456;2023-05-08T13:31:27;23.90;;;17.85;;
58621;SDS011;44389;51.578;5.456;2023-05-08T13:33:52;20.55;;;17.33;;
58621;SDS011;44389;51.578;5.456;2023-05-08T13:36:17;21.37;;;16.77;;
58621;SDS011;44389;51.578;5.456;2023-05-08T13:38:44;22.02;;;17.45;;
58621;SDS011;44389;51.578;5.456;2023-05-08T13:41:09;22.65;;;18.17;;
58621;SDS011;44389;51.578;5.456;2023-05-08T13:43:35;24.37;;;19.00;;
58621;SDS011;44389;51.578;5.456;2023-05-08T13:46:00;27.35;;;19.42;;
58621;SDS011;44389;51.578;5.456;2023-05-08T13:48:26;22.02;;;18.92;;
58621;SDS011;44389;51.578;5.456;2023-05-08T13:50:51;25.20;;;19.30;;
58621;SDS011;44389;51.578;5.456;2023-05-08T13:53:16;22.90;;;19.43;;
58621;SDS011;44389;51.578;5.456;2023-05-08T13:55:42;24.70;;;20.10;;
58621;SDS011;44389;51.578;5.456;2023-05-08T13:58:07;22.52;;;18.95;;
58621;SDS011;44389;51.578;5.456;2023-05-08T14:00:32;23.95;;;19.25;;
58621;SDS011;44389;51.578;5.456;2023-05-08T14:02:58;24.80;;;20.02;;
58621;SDS011;44389;51.578;5.456;2023-05-08T14:05:23;25.92;;;20.40;;
58621;SDS011;44389;51.578;5.456;2023-05-08T14:07:49;26.88;;;20.70;;
58621;SDS011;44389;51.578;5.456;2023-05-08T14:10:14;28.80;;;20.80;;
58621;SDS011;44389;51.578;5.456;2023-05-08T14:12:41;24.53;;;20.70;;
58621;SDS011;44389;51.578;5.456;2023-05-08T14:15:06;27.77;;;22.40;;
58621;SDS011;44389;51.578;5.456;2023-05-08T14:17:32;29.48;;;22.98;;
58621;SDS011;44389;51.578;5.456;2023-05-08T14:19:58;27.88;;;22.20;;
58621;SDS011;44389;51.578;5.456;2023-05-08T14:22:23;32.53;;;26.70;;
58621;SDS011;44389;51.578;5.456;2023-05-08T14:24:48;35.40;;;26.52;;
58621;SDS011;44389;51.578;5.456;2023-05-08T14:27:14;31.83;;;25.08;;
58621;SDS011;44389;51.578;5.456;2023-05-08T14:29:39;33.50;;;26.08;;
58621;SDS011;44389;51.578;5.456;2023-05-08T14:32:05;35.85;;;27.10;;
58621;SDS011;44389;51.578;5.456;2023-05-08T14:34:31;38.20;;;27.95;;
58621;SDS011;44389;51.578;5.456;2023-05-08T14:36:56;37.33;;;29.80;;
58621;SDS011;44389;51.578;5.456;2023-05-08T14:39:21;39.55;;;29.75;;
58621;SDS011;44389;51.578;5.456;2023-05-08T14:41:47;40.60;;;29.65;;
58621;SDS011;44389;51.578;5.456;2023-05-08T14:44:12;39.80;;;29.90;;
58621;SDS011;44389;51.578;5.456;2023-05-08T14:46:37;39.28;;;29.98;;
58621;SDS011;44389;51.578;5.456;2023-05-08T14:49:03;40.75;;;30.48;;
58621;SDS011;44389;51.578;5.456;2023-05-08T14:51:28;58.53;;;31.60;;
58621;SDS011;44389;51.578;5.456;2023-05-08T14:53:53;44.78;;;31.88;;
58621;SDS011;44389;51.578;5.456;2023-05-08T14:56:19;40.10;;;30.98;;
58621;SDS011;44389;51.578;5.456;2023-05-08T14:58:48;41.80;;;30.85;;
58621;SDS011;44389;51.578;5.456;2023-05-08T15:01:13;42.85;;;31.50;;
58621;SDS011;44389;51.578;5.456;2023-05-08T15:03:39;39.65;;;29.40;;
58621;SDS011;44389;51.578;5.456;2023-05-08T15:06:04;41.22;;;31.13;;
58621;SDS011;44389;51.578;5.456;2023-05-08T15:08:31;46.63;;;32.07;;
58621;SDS011;44389;51.578;5.456;2023-05-08T15:10:56;42.85;;;31.67;;
58621;SDS011;44389;51.578;5.456;2023-05-08T15:13:21;43.60;;;32.38;;
58621;SDS011;44389;51.578;5.456;2023-05-08T15:15:46;45.38;;;31.88;;
58621;SDS011;44389;51.578;5.456;2023-05-08T15:18:12;45.30;;;31.50;;
58621;SDS011;44389;51.578;5.456;2023-05-08T15:20:37;45.10;;;31.85;;
58621;SDS011;44389;51.578;5.456;2023-05-08T15:23:02;42.17;;;30.45;;
58621;SDS011;44389;51.578;5.456;2023-05-08T15:25:28;43.70;;;30.95;;
58621;SDS011;44389;51.578;5.456;2023-05-08T15:27:53;44.13;;;31.30;;